sensor_id;sensor_type;location;lat;lon;timestamp;P1;durP1;ratioP1;P2;durP2;ratioP2
47778;SDS011;33538;48.432;11.350;2022-09-01T00:00:53;15.43;;;9.27;;
47778;SDS011;33538;48.432;11.350;2022-09-01T00:03:20;14.23;;;9.18;;
47778;SDS011;33538;48.432;11.350;2022-09-01T00:05:47;13.38;;;8.30;;
47778;SDS011;33538;48.432;11.350;2022-09-01T00:08:15;14.75;;;9.00;;
47778;SDS011;33538;48.432;11.350;2022-09-01T00:10:44;14.48;;;9.02;;
47778;SDS011;33538;48.432;11.350;2022-09-01T00:13:10;15.07;;;8.80;;
47778;SDS011;33538;48.432;11.350;2022-09-01T00:15:37;15.60;;;9.15;;
47778;SDS011;33538;48.432;11.350;2022-09-01T00:18:04;14.57;;;8.80;;
47778;SDS011;33538;48.432;11.350;2022-09-01T00:20:31;14.57;;;8.10;;
47778;SDS011;33538;48.432;11.350;2022-09-01T00:22:58;13.52;;;8.35;;
47778;SDS011;33538;48.432;11.350;2022-09-01T00:25:27;14.85;;;8.40;;
47778;SDS011;33538;48.432;11.350;2022-09-01T00:27:54;14.45;;;8.40;;
47778;SDS011;33538;48.432;11.350;2022-09-01T00:30:22;12.93;;;8.27;;
47778;SDS011;33538;48.432;11.350;2022-09-01T00:32:48;14.45;;;8.80;;
47778;SDS011;33538;48.432;11.350;2022-09-01T00:35:16;15.50;;;9.13;;
47778;SDS011;33538;48.432;11.350;2022-09-01T00:37:44;16.05;;;8.43;;
47778;SDS011;33538;48.432;11.350;2022-09-01T00:40:11;13.98;;;8.45;;
47778;SDS011;33538;48.432;11.350;2022-09-01T00:42:42;12.90;;;8.35;;
47778;SDS011;33538;48.432;11.350;2022-09-01T00:45:09;12.55;;;7.95;;
47778;SDS011;33538;48.432;11.350;2022-09-01T00:47:37;15.13;;;8.35;;
47778;SDS011;33538;48.432;11.350;2022-09-01T00:50:04;14.43;;;8.20;;
47778;SDS011;33538;48.432;11.350;2022-09-01T00:52:33;13.75;;;8.35;;
47778;SDS011;33538;48.432;11.350;2022-09-01T00:55:04;11.77;;;7.47;;
47778;SDS011;33538;48.432;11.350;2022-09-01T00:57:35;14.52;;;8.23;;
47778;SDS011;33538;48.432;11.350;2022-09-01T01:00:05;13.40;;;7.90;;
47778;SDS011;33538;48.432;11.350;2022-09-01T01:02:34;14.88;;;8.43;;
47778;SDS011;33538;48.432;11.350;2022-09-01T01:05:01;11.70;;;7.28;;
47778;SDS011;33538;48.432;11.350;2022-09-01T01:07:29;13.15;;;8.00;;
47778;SDS011;33538;48.432;11.350;2022-09-01T01:09:57;12.30;;;7.78;;
47778;SDS011;33538;48.432;11.350;2022-09-01T01:12:24;13.43;;;7.82;;
47778;SDS011;33538;48.432;11.350;2022-09-01T01:14:51;12.05;;;7.63;;
47778;SDS011;33538;48.432;11.350;2022-09-01T01:17:19;17.45;;;8.93;;
47778;SDS011;33538;48.432;11.350;2022-09-01T01:19:49;14.10;;;7.90;;
47778;SDS011;33538;48.432;11.350;2022-09-01T01:22:43;14.13;;;7.80;;
47778;SDS011;33538;48.432;11.350;2022-09-01T01:25:19;11.32;;;6.95;;
47778;SDS011;33538;48.432;11.350;2022-09-01T01:27:46;13.80;;;7.53;;
47778;SDS011;33538;48.432;11.350;2022-09-01T01:30:15;12.40;;;8.02;;
47778;SDS011;33538;48.432;11.350;2022-09-01T01:32:42;13.80;;;8.15;;
47778;SDS011;33538;48.432;11.350;2022-09-01T01:35:10;15.88;;;7.88;;
47778;SDS011;33538;48.432;11.350;2022-09-01T01:37:37;15.93;;;8.40;;
47778;SDS011;33538;48.432;11.350;2022-09-01T01:40:05;13.27;;;7.57;;
47778;SDS011;33538;48.432;11.350;2022-09-01T01:42:34;13.75;;;7.90;;
47778;SDS011;33538;48.432;11.350;2022-09-01T01:45:00;12.95;;;8.15;;
47778;SDS011;33538;48.432;11.350;2022-09-01T01:47:27;14.20;;;8.07;;
47778;SDS011;33538;48.432;11.350;2022-09-01T01:49:54;13.27;;;7.60;;
47778;SDS011;33538;48.432;11.350;2022-09-01T01:52:21;10.88;;;7.00;;
47778;SDS011;33538;48.432;11.350;2022-09-01T01:54:52;13.82;;;7.40;;
47778;SDS011;33538;48.432;11.350;2022-09-01T01:57:18;15.05;;;8.35;;
47778;SDS011;33538;48.432;11.350;2022-09-01T01:59:46;15.20;;;8.35;;
47778;SDS011;33538;48.432;11.350;2022-09-01T02:02:13;13.82;;;7.75;;
47778;SDS011;33538;48.432;11.350;2022-09-01T02:04:40;13.20;;;7.78;;
47778;SDS011;33538;48.432;11.350;2022-09-01T02:07:08;18.38;;;7.82;;
47778;SDS011;33538;48.432;11.350;2022-09-01T02:09:36;13.10;;;8.10;;
47778;SDS011;33538;48.432;11.350;2022-09-01T02:12:03;12.75;;;7.50;;
47778;SDS011;33538;48.432;11.350;2022-09-01T02:14:30;15.10;;;8.38;;
47778;SDS011;33538;48.432;11.350;2022-09-01T02:16:59;12.85;;;7.60;;
47778;SDS011;33538;48.432;11.350;2022-09-01T02:19:26;13.32;;;7.70;;
47778;SDS011;33538;48.432;11.350;2022-09-01T02:21:52;17.77;;;9.35;;
47778;SDS011;33538;48.432;11.350;2022-09-01T02:24:20;12.82;;;7.72;;
47778;SDS011;33538;48.432;11.350;2022-09-01T02:26:48;13.98;;;8.13;;
47778;SDS011;33538;48.432;11.350;2022-09-01T02:29:16;15.07;;;7.88;;
47778;SDS011;33538;48.432;11.350;2022-09-01T02:31:45;15.05;;;8.48;;
47778;SDS011;33538;48.432;11.350;2022-09-01T02:34:15;16.17;;;8.07;;
47778;SDS011;33538;48.432;11.350;2022-09-01T02:36:43;13.93;;;8.15;;
47778;SDS011;33538;48.432;11.350;2022-09-01T02:39:12;13.52;;;7.78;;
47778;SDS011;33538;48.432;11.350;2022-09-01T02:41:39;11.90;;;7.65;;
47778;SDS011;33538;48.432;11.350;2022-09-01T02:44:07;14.85;;;8.30;;
47778;SDS011;33538;48.432;11.350;2022-09-01T02:46:34;13.25;;;7.60;;
47778;SDS011;33538;48.432;11.350;2022-09-01T02:49:00;14.23;;;8.40;;
47778;SDS011;33538;48.432;11.350;2022-09-01T02:51:28;13.80;;;8.23;;
47778;SDS011;33538;48.432;11.350;2022-09-01T02:53:55;16.52;;;8.77;;
47778;SDS011;33538;48.432;11.350;2022-09-01T02:56:23;15.77;;;8.32;;
47778;SDS011;33538;48.432;11.350;2022-09-01T02:58:51;15.77;;;8.48;;
47778;SDS011;33538;48.432;11.350;2022-09-01T03:01:19;16.15;;;8.88;;
47778;SDS011;33538;48.432;11.350;2022-09-01T03:03:48;15.00;;;8.68;;
47778;SDS011;33538;48.432;11.350;2022-09-01T03:06:16;18.10;;;8.35;;
47778;SDS011;33538;48.432;11.350;2022-09-01T03:08:45;15.07;;;8.40;;
47778;SDS011;33538;48.432;11.350;2022-09-01T03:11:12;15.13;;;8.38;;
47778;SDS011;33538;48.432;11.350;2022-09-01T03:13:40;15.25;;;8.77;;
47778;SDS011;33538;48.432;11.350;2022-09-01T03:16:07;14.68;;;8.23;;
47778;SDS011;33538;48.432;11.350;2022-09-01T03:18:35;14.73;;;7.82;;
47778;SDS011;33538;48.432;11.350;2022-09-01T03:21:05;15.07;;;9.15;;
47778;SDS011;33538;48.432;11.350;2022-09-01T03:23:32;14.35;;;8.35;;
47778;SDS011;33538;48.432;11.350;2022-09-01T03:26:00;14.00;;;8.25;;
47778;SDS011;33538;48.432;11.350;2022-09-01T03:28:27;15.38;;;8.57;;
47778;SDS011;33538;48.432;11.350;2022-09-01T03:30:55;14.93;;;8.90;;
47778;SDS011;33538;48.432;11.350;2022-09-01T03:33:23;15.75;;;8.35;;
47778;SDS011;33538;48.432;11.350;2022-09-01T03:35:52;15.63;;;9.10;;
47778;SDS011;33538;48.432;11.350;2022-09-01T03:38:19;15.30;;;8.30;;
47778;SDS011;33538;48.432;11.350;2022-09-01T03:40:47;15.13;;;8.98;;
47778;SDS011;33538;48.432;11.350;2022-09-01T03:43:17;15.18;;;9.38;;
47778;SDS011;33538;48.432;11.350;2022-09-01T03:45:45;15.40;;;8.43;;
47778;SDS011;33538;48.432;11.350;2022-09-01T03:48:12;16.58;;;8.90;;
47778;SDS011;33538;48.432;11.350;2022-09-01T03:50:39;15.40;;;8.70;;
47778;SDS011;33538;48.432;11.350;2022-09-01T03:53:07;17.55;;;8.63;;
47778;SDS011;33538;48.432;11.350;2022-09-01T03:55:34;14.40;;;8.38;;
47778;SDS011;33538;48.432;11.350;2022-09-01T03:58:04;14.02;;;8.55;;
47778;SDS011;33538;48.432;11.350;2022-09-01T04:00:38;14.98;;;8.88;;
47778;SDS011;33538;48.432;11.350;2022-09-01T04:03:13;16.75;;;9.20;;
47778;SDS011;33538;48.432;11.350;2022-09-01T04:05:42;16.95;;;9.75;;
47778;SDS011;33538;48.432;11.350;2022-09-01T04:08:10;15.25;;;8.95;;
47778;SDS011;33538;48.432;11.350;2022-09-01T04:10:42;13.68;;;8.02;;
47778;SDS011;33538;48.432;11.350;2022-09-01T04:13:16;17.88;;;9.45;;
47778;SDS011;33538;48.432;11.350;2022-09-01T04:15:47;15.75;;;8.63;;
47778;SDS011;33538;48.432;11.350;2022-09-01T04:18:15;16.55;;;9.07;;
47778;SDS011;33538;48.432;11.350;2022-09-01T04:20:42;16.90;;;9.23;;
47778;SDS011;33538;48.432;11.350;2022-09-01T04:23:10;14.90;;;9.07;;
47778;SDS011;33538;48.432;11.350;2022-09-01T04:25:38;15.85;;;8.93;;
47778;SDS011;33538;48.432;11.350;2022-09-01T04:28:05;15.88;;;8.65;;
47778;SDS011;33538;48.432;11.350;2022-09-01T04:30:32;27.58;;;10.40;;
47778;SDS011;33538;48.432;11.350;2022-09-01T04:33:00;16.70;;;9.52;;
47778;SDS011;33538;48.432;11.350;2022-09-01T04:35:27;16.30;;;9.10;;
47778;SDS011;33538;48.432;11.350;2022-09-01T04:37:53;15.00;;;9.07;;
47778;SDS011;33538;48.432;11.350;2022-09-01T04:40:20;13.38;;;8.13;;
47778;SDS011;33538;48.432;11.350;2022-09-01T04:42:48;26.88;;;9.48;;
47778;SDS011;33538;48.432;11.350;2022-09-01T04:45:15;16.10;;;9.20;;
47778;SDS011;33538;48.432;11.350;2022-09-01T04:47:46;15.18;;;8.80;;
47778;SDS011;33538;48.432;11.350;2022-09-01T04:50:14;16.52;;;8.75;;
47778;SDS011;33538;48.432;11.350;2022-09-01T04:52:41;15.07;;;9.05;;
47778;SDS011;33538;48.432;11.350;2022-09-01T04:55:09;14.98;;;8.98;;
47778;SDS011;33538;48.432;11.350;2022-09-01T04:57:36;16.42;;;8.82;;
47778;SDS011;33538;48.432;11.350;2022-09-01T05:00:04;17.58;;;9.55;;
47778;SDS011;33538;48.432;11.350;2022-09-01T05:02:31;15.20;;;9.15;;
47778;SDS011;33538;48.432;11.350;2022-09-01T05:04:58;14.82;;;8.80;;
47778;SDS011;33538;48.432;11.350;2022-09-01T05:07:26;13.65;;;8.10;;
47778;SDS011;33538;48.432;11.350;2022-09-01T05:09:53;17.13;;;9.07;;
47778;SDS011;33538;48.432;11.350;2022-09-01T05:12:25;17.25;;;9.77;;
47778;SDS011;33538;48.432;11.350;2022-09-01T05:14:52;16.92;;;8.88;;
47778;SDS011;33538;48.432;11.350;2022-09-01T05:17:19;16.50;;;9.07;;
47778;SDS011;33538;48.432;11.350;2022-09-01T05:19:46;17.48;;;8.77;;
47778;SDS011;33538;48.432;11.350;2022-09-01T05:22:14;15.93;;;8.77;;
47778;SDS011;33538;48.432;11.350;2022-09-01T05:24:43;14.15;;;8.30;;
47778;SDS011;33538;48.432;11.350;2022-09-01T05:27:10;16.73;;;9.48;;
47778;SDS011;33538;48.432;11.350;2022-09-01T05:29:37;16.92;;;9.35;;
47778;SDS011;33538;48.432;11.350;2022-09-01T05:32:04;14.35;;;8.23;;
47778;SDS011;33538;48.432;11.350;2022-09-01T05:34:31;13.73;;;8.35;;
47778;SDS011;33538;48.432;11.350;2022-09-01T05:36:58;14.32;;;8.65;;
47778;SDS011;33538;48.432;11.350;2022-09-01T05:39:25;14.27;;;8.00;;
47778;SDS011;33538;48.432;11.350;2022-09-01T05:41:54;18.15;;;9.45;;
47778;SDS011;33538;48.432;11.350;2022-09-01T05:44:21;14.70;;;8.70;;
47778;SDS011;33538;48.432;11.350;2022-09-01T05:46:48;14.30;;;8.98;;
47778;SDS011;33538;48.432;11.350;2022-09-01T05:49:15;15.27;;;8.65;;
47778;SDS011;33538;48.432;11.350;2022-09-01T05:51:43;14.35;;;7.93;;
47778;SDS011;33538;48.432;11.350;2022-09-01T05:54:16;16.58;;;8.60;;
47778;SDS011;33538;48.432;11.350;2022-09-01T05:56:46;13.60;;;8.18;;
47778;SDS011;33538;48.432;11.350;2022-09-01T05:59:14;14.50;;;7.85;;
47778;SDS011;33538;48.432;11.350;2022-09-01T06:01:51;16.55;;;7.85;;
47778;SDS011;33538;48.432;11.350;2022-09-01T06:04:18;14.15;;;8.05;;
47778;SDS011;33538;48.432;11.350;2022-09-01T06:06:46;14.27;;;7.97;;
47778;SDS011;33538;48.432;11.350;2022-09-01T06:09:33;14.38;;;7.93;;
47778;SDS011;33538;48.432;11.350;2022-09-01T06:12:02;14.10;;;8.15;;
47778;SDS011;33538;48.432;11.350;2022-09-01T06:14:30;17.33;;;7.88;;
47778;SDS011;33538;48.432;11.350;2022-09-01T06:16:57;15.85;;;8.77;;
47778;SDS011;33538;48.432;11.350;2022-09-01T06:19:24;14.95;;;8.07;;
47778;SDS011;33538;48.432;11.350;2022-09-01T06:21:51;16.15;;;9.07;;
47778;SDS011;33538;48.432;11.350;2022-09-01T06:24:18;14.98;;;8.68;;
47778;SDS011;33538;48.432;11.350;2022-09-01T06:26:44;18.40;;;8.88;;
47778;SDS011;33538;48.432;11.350;2022-09-01T06:29:11;15.15;;;8.70;;
47778;SDS011;33538;48.432;11.350;2022-09-01T06:31:40;16.67;;;8.93;;
47778;SDS011;33538;48.432;11.350;2022-09-01T06:34:08;14.95;;;8.15;;
47778;SDS011;33538;48.432;11.350;2022-09-01T06:36:36;16.10;;;8.80;;
47778;SDS011;33538;48.432;11.350;2022-09-01T06:39:04;14.80;;;8.50;;
47778;SDS011;33538;48.432;11.350;2022-09-01T06:41:31;14.15;;;8.70;;
47778;SDS011;33538;48.432;11.350;2022-09-01T06:43:58;16.02;;;8.77;;
47778;SDS011;33538;48.432;11.350;2022-09-01T06:46:25;15.13;;;8.57;;
47778;SDS011;33538;48.432;11.350;2022-09-01T06:48:53;16.98;;;8.32;;
47778;SDS011;33538;48.432;11.350;2022-09-01T06:51:20;15.00;;;8.52;;
47778;SDS011;33538;48.432;11.350;2022-09-01T06:53:49;11.27;;;7.30;;
47778;SDS011;33538;48.432;11.350;2022-09-01T06:56:16;14.75;;;7.55;;
47778;SDS011;33538;48.432;11.350;2022-09-01T06:58:44;15.00;;;8.07;;
47778;SDS011;33538;48.432;11.350;2022-09-01T07:01:12;14.23;;;8.25;;
47778;SDS011;33538;48.432;11.350;2022-09-01T07:03:40;13.68;;;8.20;;
47778;SDS011;33538;48.432;11.350;2022-09-01T07:06:09;12.05;;;7.57;;
47778;SDS011;33538;48.432;11.350;2022-09-01T07:08:57;10.77;;;7.13;;
47778;SDS011;33538;48.432;11.350;2022-09-01T07:11:44;15.90;;;8.10;;
47778;SDS011;33538;48.432;11.350;2022-09-01T07:14:31;11.05;;;6.90;;
47778;SDS011;33538;48.432;11.350;2022-09-01T07:16:58;12.30;;;6.70;;
47778;SDS011;33538;48.432;11.350;2022-09-01T07:19:45;14.25;;;8.35;;
47778;SDS011;33538;48.432;11.350;2022-09-01T07:22:15;14.77;;;8.55;;
47778;SDS011;33538;48.432;11.350;2022-09-01T07:25:02;13.00;;;7.78;;
47778;SDS011;33538;48.432;11.350;2022-09-01T07:27:38;14.13;;;7.40;;
47778;SDS011;33538;48.432;11.350;2022-09-01T07:30:07;11.88;;;6.97;;
47778;SDS011;33538;48.432;11.350;2022-09-01T07:32:34;12.52;;;7.22;;
47778;SDS011;33538;48.432;11.350;2022-09-01T07:35:13;10.63;;;6.72;;
47778;SDS011;33538;48.432;11.350;2022-09-01T07:37:44;10.07;;;6.30;;
47778;SDS011;33538;48.432;11.350;2022-09-01T07:40:31;8.88;;;6.22;;
47778;SDS011;33538;48.432;11.350;2022-09-01T07:43:18;9.40;;;6.40;;
47778;SDS011;33538;48.432;11.350;2022-09-01T07:45:48;9.10;;;6.50;;
47778;SDS011;33538;48.432;11.350;2022-09-01T07:48:25;11.30;;;6.35;;
47778;SDS011;33538;48.432;11.350;2022-09-01T07:51:13;8.18;;;5.63;;
47778;SDS011;33538;48.432;11.350;2022-09-01T07:54:01;8.02;;;5.65;;
47778;SDS011;33538;48.432;11.350;2022-09-01T07:56:29;9.15;;;5.85;;
47778;SDS011;33538;48.432;11.350;2022-09-01T07:58:55;8.25;;;5.43;;
47778;SDS011;33538;48.432;11.350;2022-09-01T08:01:24;8.93;;;5.47;;
47778;SDS011;33538;48.432;11.350;2022-09-01T08:03:52;8.43;;;5.43;;
47778;SDS011;33538;48.432;11.350;2022-09-01T08:06:21;9.02;;;5.28;;
47778;SDS011;33538;48.432;11.350;2022-09-01T08:08:52;7.15;;;4.90;;
47778;SDS011;33538;48.432;11.350;2022-09-01T08:11:24;11.65;;;5.55;;
47778;SDS011;33538;48.432;11.350;2022-09-01T08:14:12;8.07;;;5.20;;
47778;SDS011;33538;48.432;11.350;2022-09-01T08:16:39;7.68;;;5.32;;
47778;SDS011;33538;48.432;11.350;2022-09-01T08:19:17;6.47;;;5.07;;
47778;SDS011;33538;48.432;11.350;2022-09-01T08:21:44;8.88;;;5.40;;
47778;SDS011;33538;48.432;11.350;2022-09-01T08:24:10;9.90;;;5.85;;
47778;SDS011;33538;48.432;11.350;2022-09-01T08:26:39;9.18;;;5.97;;
47778;SDS011;33538;48.432;11.350;2022-09-01T08:29:05;7.95;;;5.28;;
47778;SDS011;33538;48.432;11.350;2022-09-01T08:31:32;7.88;;;5.20;;
47778;SDS011;33538;48.432;11.350;2022-09-01T08:33:59;8.18;;;4.65;;
47778;SDS011;33538;48.432;11.350;2022-09-01T08:36:26;9.70;;;5.70;;
47778;SDS011;33538;48.432;11.350;2022-09-01T08:38:52;9.55;;;5.47;;
47778;SDS011;33538;48.432;11.350;2022-09-01T08:41:22;9.32;;;5.55;;
47778;SDS011;33538;48.432;11.350;2022-09-01T08:44:05;8.48;;;5.18;;
47778;SDS011;33538;48.432;11.350;2022-09-01T08:46:38;7.55;;;5.22;;
47778;SDS011;33538;48.432;11.350;2022-09-01T08:49:08;6.68;;;4.80;;
47778;SDS011;33538;48.432;11.350;2022-09-01T08:51:57;6.95;;;5.10;;
47778;SDS011;33538;48.432;11.350;2022-09-01T08:54:31;7.90;;;4.90;;
47778;SDS011;33538;48.432;11.350;2022-09-01T08:57:07;5.97;;;4.40;;
47778;SDS011;33538;48.432;11.350;2022-09-01T08:59:40;5.97;;;4.35;;
47778;SDS011;33538;48.432;11.350;2022-09-01T09:02:12;9.38;;;4.78;;
47778;SDS011;33538;48.432;11.350;2022-09-01T09:04:53;9.00;;;5.30;;
47778;SDS011;33538;48.432;11.350;2022-09-01T09:07:48;7.13;;;4.88;;
47778;SDS011;33538;48.432;11.350;2022-09-01T09:10:35;6.95;;;4.53;;
47778;SDS011;33538;48.432;11.350;2022-09-01T09:13:09;6.53;;;4.60;;
47778;SDS011;33538;48.432;11.350;2022-09-01T09:15:46;11.65;;;5.20;;
47778;SDS011;33538;48.432;11.350;2022-09-01T09:18:34;5.78;;;4.10;;
47778;SDS011;33538;48.432;11.350;2022-09-01T09:21:08;9.00;;;5.20;;
47778;SDS011;33538;48.432;11.350;2022-09-01T09:23:41;7.40;;;5.25;;
47778;SDS011;33538;48.432;11.350;2022-09-01T09:26:10;8.45;;;5.53;;
47778;SDS011;33538;48.432;11.350;2022-09-01T09:28:42;10.57;;;6.72;;
47778;SDS011;33538;48.432;11.350;2022-09-01T09:31:27;9.57;;;6.00;;
47778;SDS011;33538;48.432;11.350;2022-09-01T09:33:55;7.97;;;5.85;;
47778;SDS011;33538;48.432;11.350;2022-09-01T09:36:23;6.05;;;4.72;;
47778;SDS011;33538;48.432;11.350;2022-09-01T09:39:03;8.73;;;5.15;;
47778;SDS011;33538;48.432;11.350;2022-09-01T09:41:35;7.85;;;5.47;;
47778;SDS011;33538;48.432;11.350;2022-09-01T09:44:04;7.88;;;5.25;;
47778;SDS011;33538;48.432;11.350;2022-09-01T09:46:41;7.72;;;4.65;;
47778;SDS011;33538;48.432;11.350;2022-09-01T09:49:11;8.63;;;4.82;;
47778;SDS011;33538;48.432;11.350;2022-09-01T09:51:41;7.15;;;5.25;;
47778;SDS011;33538;48.432;11.350;2022-09-01T09:54:13;7.65;;;5.45;;
47778;SDS011;33538;48.432;11.350;2022-09-01T09:56:43;7.18;;;5.10;;
47778;SDS011;33538;48.432;11.350;2022-09-01T09:59:18;7.47;;;5.03;;
47778;SDS011;33538;48.432;11.350;2022-09-01T10:02:15;6.47;;;4.72;;
47778;SDS011;33538;48.432;11.350;2022-09-01T10:04:53;7.32;;;5.30;;
47778;SDS011;33538;48.432;11.350;2022-09-01T10:07:22;6.45;;;4.70;;
47778;SDS011;33538;48.432;11.350;2022-09-01T10:09:52;6.75;;;5.03;;
47778;SDS011;33538;48.432;11.350;2022-09-01T10:12:20;9.98;;;5.97;;
47778;SDS011;33538;48.432;11.350;2022-09-01T10:14:50;7.32;;;5.45;;
47778;SDS011;33538;48.432;11.350;2022-09-01T10:17:22;7.60;;;4.90;;
47778;SDS011;33538;48.432;11.350;2022-09-01T10:19:56;8.18;;;4.88;;
47778;SDS011;33538;48.432;11.350;2022-09-01T10:22:24;5.43;;;4.53;;
47778;SDS011;33538;48.432;11.350;2022-09-01T10:24:51;6.90;;;5.10;;
47778;SDS011;33538;48.432;11.350;2022-09-01T10:27:19;7.05;;;4.88;;
47778;SDS011;33538;48.432;11.350;2022-09-01T10:29:50;6.60;;;4.50;;
47778;SDS011;33538;48.432;11.350;2022-09-01T10:32:42;6.13;;;4.68;;
47778;SDS011;33538;48.432;11.350;2022-09-01T10:35:20;7.93;;;4.97;;
47778;SDS011;33538;48.432;11.350;2022-09-01T10:37:50;6.07;;;4.80;;
47778;SDS011;33538;48.432;11.350;2022-09-01T10:40:19;6.85;;;4.40;;
47778;SDS011;33538;48.432;11.350;2022-09-01T10:46:09;5.75;;;3.80;;
47778;SDS011;33538;48.432;11.350;2022-09-01T10:55:25;6.68;;;4.53;;
47778;SDS011;33538;48.432;11.350;2022-09-01T10:58:12;6.13;;;4.32;;
47778;SDS011;33538;48.432;11.350;2022-09-01T11:07:37;5.05;;;3.88;;
47778;SDS011;33538;48.432;11.350;2022-09-01T11:10:30;3.65;;;2.70;;
47778;SDS011;33538;48.432;11.350;2022-09-01T11:13:14;4.68;;;2.67;;
47778;SDS011;33538;48.432;11.350;2022-09-01T11:15:55;7.72;;;3.38;;
47778;SDS011;33538;48.432;11.350;2022-09-01T11:18:26;3.58;;;2.42;;
47778;SDS011;33538;48.432;11.350;2022-09-01T11:20:56;2.67;;;2.25;;
47778;SDS011;33538;48.432;11.350;2022-09-01T11:23:41;3.47;;;2.40;;
47778;SDS011;33538;48.432;11.350;2022-09-01T11:29:17;2.50;;;1.98;;
47778;SDS011;33538;48.432;11.350;2022-09-01T11:32:21;2.25;;;2.05;;
47778;SDS011;33538;48.432;11.350;2022-09-01T11:34:51;3.10;;;2.30;;
47778;SDS011;33538;48.432;11.350;2022-09-01T11:37:22;7.90;;;2.80;;
47778;SDS011;33538;48.432;11.350;2022-09-01T11:39:53;3.13;;;2.60;;
47778;SDS011;33538;48.432;11.350;2022-09-01T11:42:24;2.72;;;2.25;;
47778;SDS011;33538;48.432;11.350;2022-09-01T11:44:54;5.07;;;2.30;;
47778;SDS011;33538;48.432;11.350;2022-09-01T11:47:26;2.67;;;2.22;;
47778;SDS011;33538;48.432;11.350;2022-09-01T11:49:57;3.22;;;2.35;;
47778;SDS011;33538;48.432;11.350;2022-09-01T11:52:27;2.88;;;2.33;;
47778;SDS011;33538;48.432;11.350;2022-09-01T11:54:56;2.45;;;2.25;;
47778;SDS011;33538;48.432;11.350;2022-09-01T11:57:25;4.22;;;2.65;;
47778;SDS011;33538;48.432;11.350;2022-09-01T11:59:55;2.78;;;2.17;;
47778;SDS011;33538;48.432;11.350;2022-09-01T12:02:24;3.45;;;2.65;;
47778;SDS011;33538;48.432;11.350;2022-09-01T12:04:53;2.10;;;1.90;;
47778;SDS011;33538;48.432;11.350;2022-09-01T12:07:36;3.33;;;2.40;;
47778;SDS011;33538;48.432;11.350;2022-09-01T12:10:12;2.22;;;2.03;;
47778;SDS011;33538;48.432;11.350;2022-09-01T12:12:43;3.70;;;2.33;;
47778;SDS011;33538;48.432;11.350;2022-09-01T12:15:17;5.35;;;2.35;;
47778;SDS011;33538;48.432;11.350;2022-09-01T12:17:45;2.58;;;2.05;;
47778;SDS011;33538;48.432;11.350;2022-09-01T12:20:17;3.97;;;2.13;;
47778;SDS011;33538;48.432;11.350;2022-09-01T12:22:47;2.47;;;1.77;;
47778;SDS011;33538;48.432;11.350;2022-09-01T12:25:17;7.80;;;3.10;;
47778;SDS011;33538;48.432;11.350;2022-09-01T12:27:47;2.45;;;1.85;;
47778;SDS011;33538;48.432;11.350;2022-09-01T12:30:14;2.50;;;2.00;;
47778;SDS011;33538;48.432;11.350;2022-09-01T12:32:41;2.65;;;2.22;;
47778;SDS011;33538;48.432;11.350;2022-09-01T12:35:13;2.25;;;1.58;;
47778;SDS011;33538;48.432;11.350;2022-09-01T12:37:41;3.22;;;1.90;;
47778;SDS011;33538;48.432;11.350;2022-09-01T12:40:21;4.20;;;2.20;;
47778;SDS011;33538;48.432;11.350;2022-09-01T12:42:50;1.70;;;1.60;;
47778;SDS011;33538;48.432;11.350;2022-09-01T12:48:06;3.88;;;1.95;;
47778;SDS011;33538;48.432;11.350;2022-09-01T12:50:48;2.15;;;1.90;;
47778;SDS011;33538;48.432;11.350;2022-09-01T12:53:19;2.83;;;2.35;;
47778;SDS011;33538;48.432;11.350;2022-09-01T12:55:55;2.50;;;1.77;;
47778;SDS011;33538;48.432;11.350;2022-09-01T12:58:28;2.13;;;1.60;;
47778;SDS011;33538;48.432;11.350;2022-09-01T13:00:57;6.50;;;1.90;;
47778;SDS011;33538;48.432;11.350;2022-09-01T13:03:28;2.20;;;2.00;;
47778;SDS011;33538;48.432;11.350;2022-09-01T13:05:55;3.03;;;2.33;;
47778;SDS011;33538;48.432;11.350;2022-09-01T13:08:24;2.60;;;2.15;;
47778;SDS011;33538;48.432;11.350;2022-09-01T13:10:54;2.88;;;1.85;;
47778;SDS011;33538;48.432;11.350;2022-09-01T13:13:23;2.08;;;1.83;;
47778;SDS011;33538;48.432;11.350;2022-09-01T13:15:51;1.58;;;1.48;;
47778;SDS011;33538;48.432;11.350;2022-09-01T13:18:21;2.28;;;2.08;;
47778;SDS011;33538;48.432;11.350;2022-09-01T13:20:49;2.20;;;1.98;;
47778;SDS011;33538;48.432;11.350;2022-09-01T13:23:17;2.55;;;2.00;;
47778;SDS011;33538;48.432;11.350;2022-09-01T13:25:45;4.22;;;2.63;;
47778;SDS011;33538;48.432;11.350;2022-09-01T13:28:14;2.00;;;1.83;;
47778;SDS011;33538;48.432;11.350;2022-09-01T13:30:43;2.35;;;1.83;;
47778;SDS011;33538;48.432;11.350;2022-09-01T13:33:13;2.80;;;1.98;;
47778;SDS011;33538;48.432;11.350;2022-09-01T13:35:45;1.90;;;1.75;;
47778;SDS011;33538;48.432;11.350;2022-09-01T13:38:12;8.50;;;2.00;;
47778;SDS011;33538;48.432;11.350;2022-09-01T13:40:39;2.47;;;2.00;;
47778;SDS011;33538;48.432;11.350;2022-09-01T13:43:07;2.75;;;1.77;;
47778;SDS011;33538;48.432;11.350;2022-09-01T13:45:35;3.22;;;2.10;;
47778;SDS011;33538;48.432;11.350;2022-09-01T13:48:02;2.22;;;1.98;;
47778;SDS011;33538;48.432;11.350;2022-09-01T13:50:45;1.90;;;1.70;;
47778;SDS011;33538;48.432;11.350;2022-09-01T13:53:34;4.00;;;1.90;;
47778;SDS011;33538;48.432;11.350;2022-09-01T13:56:01;2.75;;;1.55;;
47778;SDS011;33538;48.432;11.350;2022-09-01T13:58:28;1.80;;;1.70;;
47778;SDS011;33538;48.432;11.350;2022-09-01T14:00:56;2.42;;;1.88;;
47778;SDS011;33538;48.432;11.350;2022-09-01T14:03:23;2.17;;;1.65;;
47778;SDS011;33538;48.432;11.350;2022-09-01T14:05:50;2.00;;;1.80;;
47778;SDS011;33538;48.432;11.350;2022-09-01T14:08:17;2.00;;;1.75;;
47778;SDS011;33538;48.432;11.350;2022-09-01T14:10:47;1.90;;;1.80;;
47778;SDS011;33538;48.432;11.350;2022-09-01T14:13:15;2.78;;;1.90;;
47778;SDS011;33538;48.432;11.350;2022-09-01T14:15:43;1.83;;;1.70;;
47778;SDS011;33538;48.432;11.350;2022-09-01T14:18:11;2.33;;;1.55;;
47778;SDS011;33538;48.432;11.350;2022-09-01T14:20:38;1.92;;;1.70;;
47778;SDS011;33538;48.432;11.350;2022-09-01T14:23:08;3.75;;;1.70;;
47778;SDS011;33538;48.432;11.350;2022-09-01T14:25:35;2.25;;;1.63;;
47778;SDS011;33538;48.432;11.350;2022-09-01T14:28:06;2.72;;;1.85;;
47778;SDS011;33538;48.432;11.350;2022-09-01T14:30:33;2.58;;;1.70;;
47778;SDS011;33538;48.432;11.350;2022-09-01T14:33:00;2.05;;;1.52;;
47778;SDS011;33538;48.432;11.350;2022-09-01T14:35:28;1.52;;;1.42;;
47778;SDS011;33538;48.432;11.350;2022-09-01T14:37:56;2.80;;;1.30;;
47778;SDS011;33538;48.432;11.350;2022-09-01T14:40:23;1.65;;;1.35;;
47778;SDS011;33538;48.432;11.350;2022-09-01T14:42:50;1.55;;;1.45;;
47778;SDS011;33538;48.432;11.350;2022-09-01T14:45:18;2.92;;;1.25;;
47778;SDS011;33538;48.432;11.350;2022-09-01T14:47:46;1.58;;;1.38;;
47778;SDS011;33538;48.432;11.350;2022-09-01T14:50:14;5.20;;;1.98;;
47778;SDS011;33538;48.432;11.350;2022-09-01T14:52:49;2.08;;;1.58;;
47778;SDS011;33538;48.432;11.350;2022-09-01T14:55:18;1.58;;;1.25;;
47778;SDS011;33538;48.432;11.350;2022-09-01T14:57:45;1.63;;;1.20;;
47778;SDS011;33538;48.432;11.350;2022-09-01T15:00:12;1.60;;;1.50;;
47778;SDS011;33538;48.432;11.350;2022-09-01T15:02:40;1.77;;;1.38;;
47778;SDS011;33538;48.432;11.350;2022-09-01T15:05:08;2.28;;;1.30;;
47778;SDS011;33538;48.432;11.350;2022-09-01T15:07:37;1.38;;;1.10;;
47778;SDS011;33538;48.432;11.350;2022-09-01T15:10:07;2.70;;;1.30;;